LFML Airport Information

Runway Information
Runway 13L Length 11483 ft width 148 ft
Elevation 8 ft Threshold 1116 ft Heading 134
Runway 31R Length 11483 ft Width 148 ft
Elevation 53 ft Threshold 2165 ft Heading 314
Runway 13R Length 7776 ft width 148 ft
Elevation 8 ft Threshold 0 ft Heading 134
Runway 31L Length 7776 ft Width 148 ft
Elevation 61 ft Threshold 345 ft Heading 314
Airport Frequencies
Type APP Name APP/RADAR Frequency 120.2 MHZ
Type ATIS Name ATIS Frequency 125.35 MHZ
Type GND Name GND Frequency 121.9 MHZ
Type INFO Name INFO Frequency 118.85 MHZ
Type PFLT Name PERFLIGHT Frequency 121.725 MHZ
Type TWR Name TWR Frequency 118.375 MHZ
Airport Navaids
Type VOR-DME Name Marseille/Provence Frequency 108800 KHZ
Airport Weather Information & NOTAM
ADDS - METARS form results

(1910 UTC 25 June 2018)
 
METAR text: LFML 251900Z AUTO 17007KT 9999 2800 NSC 24/14 Q1016 NOSIG
Conditions at: LFML (MARSEILLE/MARIGN, FR) observed 1900 UTC 25 June 2018
Temperature: 24.0°C (75°F)
Dewpoint: 14.0°C (57°F) [RH = 54%]
Pressure (altimeter): 30.00 inches Hg (1016.0 mb)
Winds: from the S (170 degrees) at 8 MPH (7 knots; 3.6 m/s)
Visibility: 6 or more miles (10+ km)
Ceiling: at least 12,000 feet AGL
Clouds: sky clear below 12,000 feet AGL
Weather: no significant weather observed at this time

METAR text: LFML 251830Z AUTO 17010KT CAVOK 25/14 Q1015 NOSIG
Conditions at: LFML (MARSEILLE/MARIGN, FR) observed 1830 UTC 25 June 2018
Temperature: 25.0°C (77°F)
Dewpoint: 14.0°C (57°F) [RH = 50%]
Pressure (altimeter): 29.97 inches Hg (1015.0 mb)
Winds: from the S (170 degrees) at 12 MPH (10 knots; 5.2 m/s)
Visibility: 6 or more miles (10+ km)
Ceiling: ceiling and visibility are OK
Clouds: unknown
Weather: no significant weather observed at this time